createdAt,value
2017-04-01T00:00:10.656Z,0
2017-04-01T00:00:51.172Z,0
2017-04-01T00:01:31.674Z,0
2017-04-01T00:02:12.200Z,0
2017-04-01T00:02:52.735Z,0
2017-04-01T00:03:33.229Z,0
2017-04-01T00:04:13.756Z,0
2017-04-01T00:04:54.283Z,0
2017-04-01T00:05:34.791Z,0
2017-04-01T00:06:15.309Z,0
2017-04-01T00:06:55.825Z,0
2017-04-01T00:07:36.340Z,0
2017-04-01T00:08:16.864Z,0
2017-04-01T00:08:57.388Z,0
2017-04-01T00:09:37.916Z,0
2017-04-01T00:10:18.420Z,0
2017-04-01T00:10:58.938Z,0
2017-04-01T00:11:39.452Z,0
2017-04-01T00:12:19.953Z,0
2017-04-01T00:13:00.465Z,0
2017-04-01T00:13:40.995Z,0
2017-04-01T00:14:21.495Z,0
2017-04-01T00:15:02.018Z,0
2017-04-01T00:15:42.545Z,0
2017-04-01T00:16:23.050Z,0
2017-04-01T00:17:03.564Z,0
2017-04-01T00:17:44.077Z,0
2017-04-01T00:18:24.596Z,0
2017-04-01T00:19:05.144Z,0
2017-04-01T00:19:45.626Z,0
2017-04-01T00:20:26.158Z,0
2017-04-01T00:21:06.666Z,0
2017-04-01T00:21:47.171Z,0
2017-04-01T00:22:27.710Z,0
2017-04-01T00:23:08.238Z,0
2017-04-01T00:23:48.754Z,0
2017-04-01T00:24:29.263Z,0
2017-04-01T00:25:09.789Z,0
2017-04-01T00:25:50.307Z,0
2017-04-01T00:26:30.820Z,0
2017-04-01T00:27:11.361Z,0
2017-04-01T00:27:51.855Z,0
2017-04-01T00:28:32.362Z,0
2017-04-01T00:29:12.892Z,0
2017-04-01T00:29:53.408Z,0
2017-04-01T00:30:33.927Z,0
2017-04-01T00:31:14.454Z,0
2017-04-01T00:31:55.004Z,0
2017-04-01T00:32:35.518Z,0
2017-04-01T00:33:16.030Z,0
2017-04-01T00:33:56.547Z,0
2017-04-01T00:34:37.067Z,0
2017-04-01T00:35:17.570Z,0
2017-04-01T00:35:58.093Z,0
2017-04-01T00:36:38.601Z,0
2017-04-01T00:37:19.116Z,0
2017-04-01T00:37:59.661Z,0
2017-04-01T00:38:40.144Z,0
2017-04-01T00:39:20.674Z,0
2017-04-01T00:40:01.191Z,0
2017-04-01T00:40:41.714Z,0
2017-04-01T00:41:22.242Z,0
2017-04-01T00:42:02.751Z,0
2017-04-01T00:42:43.286Z,0
2017-04-01T00:43:23.776Z,0
2017-04-01T00:44:04.293Z,0
2017-04-01T00:44:44.813Z,0
2017-04-01T00:45:25.299Z,0
2017-04-01T00:46:05.806Z,0
2017-04-01T00:46:46.318Z,0
2017-04-01T00:47:26.842Z,0
2017-04-01T00:48:07.346Z,0
2017-04-01T00:48:47.871Z,0
2017-04-01T00:49:28.404Z,0
2017-04-01T00:50:08.909Z,0
2017-04-01T00:50:49.429Z,0
2017-04-01T00:51:29.976Z,0
2017-04-01T00:52:10.478Z,0
2017-04-01T00:52:51.012Z,0
2017-04-01T00:53:31.549Z,0
2017-04-01T00:54:12.066Z,0
2017-04-01T00:54:52.579Z,0
2017-04-01T00:55:33.087Z,0
2017-04-01T00:56:13.599Z,0
2017-04-01T00:56:54.086Z,0
2017-04-01T00:57:34.585Z,0
2017-04-01T00:58:15.097Z,0
2017-04-01T00:58:55.610Z,0
2017-04-01T00:59:36.131Z,0
2017-04-01T01:00:16.642Z,0
2017-04-01T01:00:57.157Z,0
2017-04-01T01:01:37.657Z,0
2017-04-01T01:02:18.170Z,0
2017-04-01T01:02:58.669Z,0
2017-04-01T01:03:39.174Z,0
2017-04-01T01:04:19.680Z,0
2017-04-01T01:05:00.200Z,0
2017-04-01T01:05:40.722Z,0
2017-04-01T01:06:21.220Z,0
2017-04-01T01:07:01.750Z,0
2017-04-01T01:07:42.266Z,0
2017-04-01T01:08:22.770Z,0
2017-04-01T01:09:03.290Z,0
2017-04-01T01:09:43.812Z,0
2017-04-01T01:10:24.325Z,0
2017-04-01T01:11:04.860Z,0
2017-04-01T01:11:45.382Z,0
2017-04-01T01:12:25.917Z,0
2017-04-01T01:13:06.445Z,0
2017-04-01T01:13:46.962Z,0
2017-04-01T01:14:27.467Z,0
2017-04-01T01:15:07.978Z,0
2017-04-01T01:15:48.499Z,0
2017-04-01T01:16:29.018Z,0
2017-04-01T01:17:09.544Z,0
2017-04-01T01:17:50.055Z,0
2017-04-01T01:18:30.584Z,0
2017-04-01T01:19:11.115Z,0
2017-04-01T01:19:51.634Z,0
2017-04-01T01:20:32.148Z,0
2017-04-01T01:21:12.676Z,0
2017-04-01T01:21:53.196Z,0
2017-04-01T01:22:33.726Z,0
2017-04-01T01:23:14.251Z,0
2017-04-01T01:23:54.766Z,0
2017-04-01T01:24:35.273Z,0
2017-04-01T01:25:15.795Z,0
2017-04-01T01:25:56.315Z,0
2017-04-01T01:26:36.839Z,0
2017-04-01T01:27:17.367Z,0
2017-04-01T01:27:57.880Z,0
2017-04-01T01:28:38.413Z,0
2017-04-01T01:29:18.948Z,0
2017-04-01T01:29:59.465Z,0
2017-04-01T01:30:39.986Z,0
2017-04-01T01:31:20.501Z,0
2017-04-01T01:32:01.013Z,0
2017-04-01T01:32:41.532Z,0
2017-04-01T01:33:22.067Z,0
2017-04-01T01:34:02.575Z,0
2017-04-01T01:34:43.092Z,0
2017-04-01T01:35:23.622Z,0
2017-04-01T01:36:04.154Z,0
2017-04-01T01:36:44.688Z,0
2017-04-01T01:37:25.208Z,0
2017-04-01T01:38:05.719Z,0
2017-04-01T01:38:46.240Z,0
2017-04-01T01:39:26.787Z,0
2017-04-01T01:40:07.296Z,0
2017-04-01T01:40:47.807Z,0
2017-04-01T01:41:28.337Z,0
2017-04-01T01:42:08.861Z,0
2017-04-01T01:42:49.376Z,0
2017-04-01T01:43:29.890Z,0
2017-04-01T01:44:10.399Z,0
2017-04-01T01:44:50.933Z,0
2017-04-01T01:45:31.438Z,0
2017-04-01T01:46:11.942Z,0
2017-04-01T01:46:52.464Z,0
2017-04-01T01:47:32.983Z,0
2017-04-01T01:48:13.495Z,0
2017-04-01T01:48:54.003Z,0
2017-04-01T01:49:34.542Z,0
2017-04-01T01:50:15.049Z,0
2017-04-01T01:50:55.577Z,0
2017-04-01T01:51:36.087Z,0
2017-04-01T01:52:16.607Z,0
2017-04-01T01:52:57.142Z,0
2017-04-01T01:53:37.664Z,0
2017-04-01T01:54:18.174Z,0
2017-04-01T01:54:58.687Z,0
2017-04-01T01:55:39.202Z,0
2017-04-01T01:56:19.712Z,0
2017-04-01T01:57:00.240Z,0
2017-04-01T01:57:40.762Z,0
2017-04-01T01:58:21.284Z,0
2017-04-01T01:59:01.804Z,0
2017-04-01T01:59:42.364Z,0
2017-04-01T02:00:22.824Z,0
2017-04-01T02:01:03.351Z,0
2017-04-01T02:01:43.867Z,0
2017-04-01T02:02:24.411Z,0
2017-04-01T02:03:04.932Z,0
2017-04-01T02:03:45.443Z,0
2017-04-01T02:04:25.953Z,0
2017-04-01T02:05:06.494Z,0
2017-04-01T02:05:46.986Z,0
2017-04-01T02:06:27.484Z,0
2017-04-01T02:07:08.015Z,0
2017-04-01T02:07:48.530Z,0
2017-04-01T02:08:29.046Z,0
2017-04-01T02:09:09.552Z,0
2017-04-01T02:09:50.069Z,0
2017-04-01T02:10:30.596Z,0
2017-04-01T02:11:11.105Z,0
2017-04-01T02:11:51.647Z,0
2017-04-01T02:12:32.167Z,0
2017-04-01T02:13:12.672Z,0
2017-04-01T02:13:53.180Z,0
2017-04-01T02:14:33.710Z,0
2017-04-01T02:15:14.200Z,0
2017-04-01T02:15:54.719Z,0
2017-04-01T02:16:35.214Z,0
2017-04-01T02:17:15.825Z,0
2017-04-01T02:17:56.334Z,0
2017-04-01T02:18:36.852Z,0
2017-04-01T02:19:17.361Z,0
2017-04-01T02:19:57.875Z,0
2017-04-01T02:20:38.374Z,0
2017-04-01T02:21:18.899Z,0
2017-04-01T02:21:59.400Z,0
2017-04-01T02:22:39.918Z,0
2017-04-01T02:23:20.433Z,0
2017-04-01T02:24:00.938Z,0
2017-04-01T02:24:41.459Z,0
2017-04-01T02:25:21.964Z,0
2017-04-01T02:26:02.492Z,0
2017-04-01T02:26:43.015Z,0
2017-04-01T02:27:23.536Z,0
2017-04-01T02:28:04.061Z,0
2017-04-01T02:28:44.572Z,0
2017-04-01T02:29:25.069Z,0
2017-04-01T02:30:05.619Z,0
2017-04-01T02:30:46.157Z,0
2017-04-01T02:31:26.678Z,0
2017-04-01T02:32:07.209Z,0
2017-04-01T02:32:47.719Z,0
2017-04-01T02:33:28.239Z,0
2017-04-01T02:34:08.760Z,0
2017-04-01T02:34:49.282Z,0
2017-04-01T02:35:29.821Z,0
2017-04-01T02:36:10.341Z,0
2017-04-01T02:36:50.860Z,0
2017-04-01T02:37:31.390Z,0
2017-04-01T02:38:11.908Z,0
2017-04-01T02:38:52.418Z,0
2017-04-01T02:39:32.929Z,0
2017-04-01T02:40:13.451Z,0
2017-04-01T02:40:53.952Z,0
2017-04-01T02:41:34.476Z,0
2017-04-01T02:42:14.989Z,0
2017-04-01T02:42:55.494Z,0
2017-04-01T02:43:35.984Z,0
2017-04-01T02:44:16.490Z,0
2017-04-01T02:44:56.980Z,0
2017-04-01T02:45:37.510Z,0
2017-04-01T02:46:18.027Z,0
2017-04-01T02:46:58.535Z,0
2017-04-01T02:47:39.059Z,0
2017-04-01T02:48:19.583Z,0
2017-04-01T02:49:00.084Z,0
2017-04-01T02:49:40.621Z,0
2017-04-01T02:50:21.138Z,0
2017-04-01T02:51:01.646Z,0
2017-04-01T02:51:42.159Z,0
2017-04-01T02:52:22.666Z,0
2017-04-01T02:53:03.186Z,0
2017-04-01T02:53:43.713Z,0
2017-04-01T02:54:24.188Z,0
2017-04-01T02:55:04.722Z,0
2017-04-01T02:55:45.240Z,0
2017-04-01T02:56:25.771Z,0
2017-04-01T02:57:06.289Z,0
2017-04-01T02:57:46.811Z,0
2017-04-01T02:58:27.319Z,0
2017-04-01T02:59:07.842Z,0
2017-04-01T02:59:48.353Z,0
2017-04-01T03:00:28.879Z,0
2017-04-01T03:01:09.403Z,0
2017-04-01T03:01:49.920Z,0
2017-04-01T03:02:30.430Z,0
2017-04-01T03:03:10.927Z,0
2017-04-01T03:03:51.462Z,0
2017-04-01T03:04:31.978Z,0
2017-04-01T03:05:12.494Z,0
2017-04-01T03:05:53.014Z,0
2017-04-01T03:06:33.537Z,0
2017-04-01T03:07:14.048Z,0
2017-04-01T03:07:54.551Z,0
2017-04-01T03:08:35.073Z,0
2017-04-01T03:09:15.585Z,0
2017-04-01T03:09:56.101Z,0
2017-04-01T03:10:36.628Z,0
2017-04-01T03:11:17.138Z,0
2017-04-01T03:11:57.653Z,0
2017-04-01T03:12:38.163Z,0
2017-04-01T03:13:18.697Z,0
2017-04-01T03:13:59.224Z,0
2017-04-01T03:14:39.725Z,0
2017-04-01T03:15:20.245Z,0
2017-04-01T03:16:00.755Z,0
2017-04-01T03:16:41.278Z,0
2017-04-01T03:17:21.817Z,0
2017-04-01T03:18:02.311Z,0
2017-04-01T03:18:42.808Z,0
2017-04-01T03:19:23.338Z,0
2017-04-01T03:20:03.850Z,0
2017-04-01T03:20:44.364Z,0
2017-04-01T03:21:24.880Z,0
2017-04-01T03:22:05.417Z,0
2017-04-01T03:22:45.928Z,0
2017-04-01T03:23:26.448Z,0
2017-04-01T03:24:06.981Z,0
2017-04-01T03:24:47.491Z,0
2017-04-01T03:25:28.009Z,0
2017-04-01T03:26:08.535Z,0
2017-04-01T03:26:49.054Z,0
2017-04-01T03:27:29.575Z,0
2017-04-01T03:28:10.086Z,0
2017-04-01T03:28:50.582Z,0
2017-04-01T03:29:31.097Z,0
2017-04-01T03:30:11.624Z,0
2017-04-01T03:30:52.195Z,0
2017-04-01T03:31:32.676Z,0
2017-04-01T03:32:13.217Z,0
2017-04-01T03:32:53.757Z,0
2017-04-01T03:33:34.346Z,0
2017-04-01T03:34:14.919Z,0
2017-04-01T03:34:55.518Z,0
2017-04-01T03:35:36.867Z,0
2017-04-01T03:36:17.399Z,0
2017-04-01T03:36:57.918Z,0
2017-04-01T03:37:38.432Z,0
2017-04-01T03:38:18.998Z,0
2017-04-01T03:38:59.478Z,0
2017-04-01T03:39:39.974Z,0
2017-04-01T03:40:20.496Z,0
2017-04-01T03:41:00.969Z,0
2017-04-01T03:41:41.529Z,0
2017-04-01T03:42:22.024Z,0
2017-04-01T03:43:02.599Z,0
2017-04-01T03:43:43.064Z,0
2017-04-01T03:44:23.695Z,0
2017-04-01T03:45:04.235Z,0
2017-04-01T03:45:44.800Z,0
2017-04-01T03:46:25.320Z,0
2017-04-01T03:47:05.918Z,0
2017-04-01T03:47:46.464Z,0
2017-04-01T03:48:27.003Z,0
2017-04-01T03:49:07.607Z,0
2017-04-01T03:49:48.159Z,0
2017-04-01T03:50:28.689Z,0
2017-04-01T03:51:09.219Z,0
2017-04-01T03:51:49.713Z,0
2017-04-01T03:52:30.237Z,0
2017-04-01T03:53:10.758Z,0
2017-04-01T03:53:51.322Z,0
2017-04-01T03:54:31.790Z,0
2017-04-01T03:55:12.305Z,0
2017-04-01T03:55:52.977Z,0
2017-04-01T03:56:33.540Z,0
2017-04-01T03:57:14.077Z,0
2017-04-01T03:57:54.610Z,0
2017-04-01T03:58:35.143Z,0
2017-04-01T03:59:15.620Z,0
2017-04-01T03:59:56.127Z,0
2017-04-01T04:00:36.643Z,0
2017-04-01T04:01:17.159Z,0
2017-04-01T04:01:57.670Z,0
2017-04-01T04:02:38.199Z,0
2017-04-01T04:03:18.707Z,0
2017-04-01T04:03:59.242Z,0
2017-04-01T04:04:39.762Z,0
2017-04-01T04:05:20.275Z,0
2017-04-01T04:06:00.795Z,0
2017-04-01T04:06:41.295Z,0
2017-04-01T04:07:21.817Z,0
2017-04-01T04:08:02.347Z,0
2017-04-01T04:08:42.860Z,0
2017-04-01T04:09:23.371Z,0
2017-04-01T04:10:03.890Z,0
2017-04-01T04:10:44.396Z,0
2017-04-01T04:11:24.916Z,0
2017-04-01T04:12:05.422Z,0
2017-04-01T04:12:45.980Z,0
2017-04-01T04:13:26.490Z,0
2017-04-01T04:14:07.003Z,0
2017-04-01T04:14:47.523Z,0
2017-04-01T04:15:28.042Z,0
2017-04-01T04:16:08.554Z,0
2017-04-01T04:16:49.059Z,0
2017-04-01T04:17:29.572Z,0
2017-04-01T04:18:10.092Z,0
2017-04-01T04:18:50.618Z,0
2017-04-01T04:19:31.142Z,0
2017-04-01T04:20:11.660Z,0
2017-04-01T04:20:52.175Z,0
2017-04-01T04:21:32.686Z,0
2017-04-01T04:22:13.195Z,0
2017-04-01T04:22:53.699Z,0
2017-04-01T04:23:34.218Z,0
2017-04-01T04:24:14.716Z,0
2017-04-01T04:24:55.240Z,0
2017-04-01T04:25:35.766Z,0
2017-04-01T04:26:16.278Z,0
2017-04-01T04:26:56.787Z,0
2017-04-01T04:27:37.311Z,0
2017-04-01T04:28:17.800Z,0
2017-04-01T04:28:58.331Z,0
2017-04-01T04:29:38.863Z,0
2017-04-01T04:30:19.361Z,0
2017-04-01T04:30:59.886Z,0
2017-04-01T04:31:40.398Z,0
2017-04-01T04:32:20.897Z,0
2017-04-01T04:33:01.419Z,0
2017-04-01T04:33:41.935Z,0
2017-04-01T04:34:22.434Z,0
2017-04-01T04:35:02.964Z,0
2017-04-01T04:35:43.470Z,0
2017-04-01T04:36:23.991Z,0
2017-04-01T04:37:04.519Z,0
2017-04-01T04:37:45.075Z,0
2017-04-01T04:38:25.599Z,0
2017-04-01T04:39:06.101Z,0
2017-04-01T04:39:46.616Z,0
2017-04-01T04:40:27.134Z,0
2017-04-01T04:41:07.660Z,0
2017-04-01T04:41:48.166Z,0
2017-04-01T04:42:28.663Z,0
2017-04-01T04:43:09.176Z,0
2017-04-01T04:43:49.723Z,0
2017-04-01T04:44:30.234Z,0
2017-04-01T04:45:10.767Z,0
2017-04-01T04:45:51.290Z,0
2017-04-01T04:46:31.800Z,0
2017-04-01T04:47:12.315Z,0
2017-04-01T04:47:52.821Z,0
2017-04-01T04:48:33.356Z,0
2017-04-01T04:49:13.880Z,0
2017-04-01T04:49:54.392Z,0
2017-04-01T04:50:34.922Z,0
2017-04-01T04:51:15.415Z,0
2017-04-01T04:51:55.928Z,0
2017-04-01T04:52:36.477Z,0
2017-04-01T04:53:16.974Z,0
2017-04-01T04:53:57.497Z,0
2017-04-01T04:54:38.010Z,0
2017-04-01T04:55:18.513Z,0
2017-04-01T04:55:59.025Z,0
2017-04-01T04:56:39.543Z,0
2017-04-01T04:57:20.062Z,0
2017-04-01T04:58:00.587Z,0
2017-04-01T04:58:41.106Z,0
2017-04-01T04:59:21.622Z,0
2017-04-01T05:00:02.138Z,0
2017-04-01T05:00:42.646Z,0
2017-04-01T05:01:23.161Z,0
2017-04-01T05:02:03.675Z,0
2017-04-01T05:02:44.178Z,0
2017-04-01T05:03:24.678Z,0
2017-04-01T05:04:05.201Z,0
2017-04-01T05:04:45.717Z,0
2017-04-01T05:05:26.232Z,0
2017-04-01T05:06:06.751Z,0
2017-04-01T05:06:47.254Z,5
2017-04-01T05:07:27.768Z,5
2017-04-01T05:08:08.272Z,5
2017-04-01T05:08:48.812Z,5
2017-04-01T05:09:29.308Z,5
2017-04-01T05:10:09.818Z,5
2017-04-01T05:10:50.368Z,5
2017-04-01T05:11:30.899Z,5
2017-04-01T05:12:11.411Z,5
2017-04-01T05:12:51.912Z,5
2017-04-01T05:13:32.436Z,5
2017-04-01T05:14:12.941Z,5
2017-04-01T05:14:53.470Z,5
2017-04-01T05:15:33.986Z,5
2017-04-01T05:16:14.495Z,5
2017-04-01T05:16:55.034Z,10
2017-04-01T05:17:35.551Z,10
2017-04-01T05:18:16.085Z,10
2017-04-01T05:18:56.598Z,10
2017-04-01T05:19:37.105Z,10
2017-04-01T05:20:17.618Z,10
2017-04-01T05:20:58.143Z,10
2017-04-01T05:21:38.670Z,15
2017-04-01T05:22:19.206Z,15
2017-04-01T05:22:59.725Z,15
2017-04-01T05:23:40.242Z,20
2017-04-01T05:24:20.825Z,20
2017-04-01T05:25:01.348Z,20
2017-04-01T05:25:41.855Z,25
2017-04-01T05:26:22.378Z,25
2017-04-01T05:27:02.891Z,25
2017-04-01T05:27:43.421Z,30
2017-04-01T05:28:23.939Z,30
2017-04-01T05:29:04.446Z,35
2017-04-01T05:29:44.968Z,35
2017-04-01T05:30:25.490Z,35
2017-04-01T05:31:06.009Z,40
2017-04-01T05:31:46.538Z,40
2017-04-01T05:32:27.042Z,40
2017-04-01T05:33:07.561Z,40
2017-04-01T05:33:48.067Z,40
2017-04-01T05:34:28.601Z,40
2017-04-01T05:35:09.141Z,40
2017-04-01T05:35:49.619Z,40
2017-04-01T05:36:30.149Z,40
2017-04-01T05:37:10.682Z,40
2017-04-01T05:37:51.202Z,35
2017-04-01T05:38:31.715Z,35
2017-04-01T05:39:12.235Z,35
2017-04-01T05:39:52.734Z,35
2017-04-01T05:40:33.250Z,40
2017-04-01T05:41:13.781Z,40
2017-04-01T05:41:54.293Z,40
2017-04-01T05:42:34.802Z,40
2017-04-01T05:43:15.340Z,40
2017-04-01T05:43:55.864Z,45
2017-04-01T05:44:36.390Z,45
2017-04-01T05:45:16.897Z,45
2017-04-01T05:45:57.412Z,45
2017-04-01T05:46:37.930Z,45
2017-04-01T05:47:18.442Z,45
2017-04-01T05:47:58.969Z,45
2017-04-01T05:48:39.476Z,45
2017-04-01T05:49:20.009Z,45
2017-04-01T05:50:00.542Z,45
2017-04-01T05:50:41.058Z,45
2017-04-01T05:51:21.839Z,45
2017-04-01T05:52:02.476Z,45
2017-04-01T05:52:42.995Z,45
2017-04-01T05:53:23.516Z,45
2017-04-01T05:54:04.036Z,50
2017-04-01T05:54:44.557Z,50
2017-04-01T05:55:25.070Z,50
2017-04-01T05:56:05.611Z,50
2017-04-01T05:56:46.124Z,50
2017-04-01T05:57:26.629Z,50
2017-04-01T05:58:07.164Z,50
2017-04-01T05:58:47.697Z,50
2017-04-01T05:59:28.206Z,55
2017-04-01T06:00:08.713Z,55
2017-04-01T06:00:49.250Z,55
2017-04-01T06:01:29.768Z,55
2017-04-01T06:02:10.294Z,55
2017-04-01T06:02:50.806Z,55
2017-04-01T06:03:31.324Z,55
2017-04-01T06:04:11.840Z,55
2017-04-01T06:04:52.364Z,55
2017-04-01T06:05:32.892Z,55
2017-04-01T06:06:13.391Z,55
2017-04-01T06:06:53.917Z,50
2017-04-01T06:07:34.439Z,50
2017-04-01T06:08:14.930Z,50
2017-04-01T06:08:55.473Z,50
2017-04-01T06:09:35.988Z,50
2017-04-01T06:10:16.524Z,50
2017-04-01T06:10:57.023Z,50
2017-04-01T06:11:37.544Z,50
2017-04-01T06:12:18.061Z,50
2017-04-01T06:12:58.575Z,55
2017-04-01T06:13:39.070Z,55
2017-04-01T06:14:19.590Z,60
2017-04-01T06:15:00.101Z,65
2017-04-01T06:15:40.609Z,70
2017-04-01T06:16:21.141Z,70
2017-04-01T06:17:01.669Z,70
2017-04-01T06:17:42.197Z,75
2017-04-01T06:18:22.735Z,80
2017-04-01T06:19:03.252Z,80
2017-04-01T06:19:43.766Z,80
2017-04-01T06:20:24.294Z,85
2017-04-01T06:21:04.809Z,85
2017-04-01T06:21:45.320Z,90
2017-04-01T06:22:25.850Z,95
2017-04-01T06:23:06.394Z,100
2017-04-01T06:23:46.910Z,100
2017-04-01T06:24:27.430Z,105
2017-04-01T06:25:07.951Z,105
2017-04-01T06:25:48.465Z,105
2017-04-01T06:26:28.971Z,105
2017-04-01T06:27:09.471Z,105
2017-04-01T06:27:49.976Z,110
2017-04-01T06:28:30.493Z,115
2017-04-01T06:29:10.997Z,115
2017-04-01T06:29:51.510Z,115
2017-04-01T06:30:32.010Z,110
2017-04-01T06:31:12.519Z,110
2017-04-01T06:31:53.074Z,105
2017-04-01T06:32:33.601Z,105
2017-04-01T06:33:14.115Z,100
2017-04-01T06:33:54.594Z,100
2017-04-01T06:34:35.107Z,105
2017-04-01T06:35:15.619Z,105
2017-04-01T06:35:56.134Z,110
2017-04-01T06:36:36.638Z,115
2017-04-01T06:37:17.166Z,120
2017-04-01T06:37:57.673Z,125
2017-04-01T06:38:38.202Z,135
2017-04-01T06:39:18.715Z,130
2017-04-01T06:39:59.213Z,130
2017-04-01T06:40:39.729Z,130
2017-04-01T06:41:20.259Z,130
2017-04-01T06:42:00.772Z,130
2017-04-01T06:42:41.275Z,135
2017-04-01T06:43:21.779Z,140
2017-04-01T06:44:02.300Z,145
2017-04-01T06:44:42.812Z,155
2017-04-01T06:45:23.331Z,165
2017-04-01T06:46:03.837Z,180
2017-04-01T06:46:44.375Z,185
2017-04-01T06:47:24.909Z,180
2017-04-01T06:48:05.459Z,180
2017-04-01T06:48:45.986Z,180
2017-04-01T06:49:26.495Z,185
2017-04-01T06:50:07.107Z,185
2017-04-01T06:50:47.570Z,190
2017-04-01T06:51:28.091Z,195
2017-04-01T06:52:08.629Z,200
2017-04-01T06:52:49.162Z,200
2017-04-01T06:53:29.720Z,195
2017-04-01T06:54:10.339Z,185
2017-04-01T06:54:50.858Z,175
2017-04-01T06:55:31.364Z,170
2017-04-01T06:56:11.911Z,165
2017-04-01T06:56:52.459Z,165
2017-04-01T06:59:12.033Z,150
2017-04-01T06:59:53.473Z,150
2017-04-01T07:00:34.162Z,145
2017-04-01T07:01:14.682Z,145
2017-04-01T07:01:55.193Z,145
2017-04-01T07:02:35.691Z,145
2017-04-01T07:03:16.245Z,140
2017-04-01T07:03:56.733Z,140
2017-04-01T07:04:37.247Z,145
2017-04-01T07:05:17.777Z,145
2017-04-01T07:05:58.341Z,150
2017-04-01T07:06:38.806Z,155
2017-04-01T07:07:19.303Z,160
2017-04-01T07:07:59.792Z,165
2017-04-01T07:08:40.327Z,165
2017-04-01T07:09:20.816Z,165
2017-04-01T07:10:01.350Z,165
2017-04-01T07:10:41.938Z,170
2017-04-01T07:11:22.449Z,170
2017-04-01T07:12:02.987Z,175
2017-04-01T07:12:43.517Z,175
2017-04-01T07:13:24.039Z,180
2017-04-01T07:14:04.534Z,185
2017-04-01T07:14:45.053Z,195
2017-04-01T07:15:25.540Z,195
2017-04-01T07:16:06.044Z,210
2017-04-01T07:16:46.534Z,215
2017-04-01T07:17:27.067Z,220
2017-04-01T07:18:07.640Z,225
2017-04-01T07:18:48.419Z,235
2017-04-01T07:19:29.542Z,250
2017-04-01T07:20:10.102Z,260
2017-04-01T07:20:50.672Z,260
2017-04-01T07:21:31.202Z,255
2017-04-01T07:22:11.815Z,260
2017-04-01T07:22:53.338Z,255
2017-04-01T07:23:33.830Z,250
2017-04-01T07:24:14.391Z,245
2017-04-01T07:24:54.921Z,245
2017-04-01T07:25:35.471Z,230
2017-04-01T07:26:16.000Z,215
2017-04-01T07:26:56.561Z,205
2017-04-01T07:27:37.065Z,200
2017-04-01T07:28:17.572Z,195
2017-04-01T07:28:58.085Z,185
2017-04-01T07:29:38.637Z,185
2017-04-01T07:30:19.172Z,195
2017-04-01T07:30:59.709Z,195
2017-04-01T07:31:40.212Z,185
2017-04-01T07:32:20.694Z,185
2017-04-01T07:33:01.201Z,185
2017-04-01T07:33:41.737Z,175
2017-04-01T07:34:22.260Z,175
2017-04-01T07:35:02.816Z,175
2017-04-01T07:35:43.339Z,170
2017-04-01T07:36:23.830Z,170
2017-04-01T07:37:04.332Z,165
2017-04-01T07:37:44.848Z,170
2017-04-01T07:38:25.383Z,180
2017-04-01T07:39:05.915Z,180
2017-04-01T07:39:46.423Z,175
2017-04-01T07:40:26.950Z,175
2017-04-01T07:41:07.464Z,175
2017-04-01T07:41:47.965Z,170
2017-04-01T07:42:28.491Z,165
2017-04-01T07:43:09.008Z,155
2017-04-01T07:43:49.527Z,160
2017-04-01T07:44:30.044Z,165
2017-04-01T07:45:10.573Z,160
2017-04-01T07:45:51.105Z,165
2017-04-01T07:46:31.590Z,175
2017-04-01T07:47:12.118Z,180
2017-04-01T07:47:52.624Z,180
2017-04-01T07:48:33.144Z,190
2017-04-01T07:49:13.659Z,205
2017-04-01T07:49:54.174Z,205
2017-04-01T07:50:34.706Z,210
2017-04-01T07:51:15.234Z,220
2017-04-01T07:51:55.738Z,240
2017-04-01T07:52:36.261Z,250
2017-04-01T07:53:16.769Z,260
2017-04-01T07:53:57.281Z,285
2017-04-01T07:54:37.791Z,285
2017-04-01T07:55:18.304Z,295
2017-04-01T07:55:58.814Z,300
2017-04-01T07:56:39.341Z,310
2017-04-01T07:57:19.870Z,310
2017-04-01T07:58:00.389Z,320
2017-04-01T07:58:40.905Z,320
2017-04-01T07:59:21.431Z,320
2017-04-01T08:00:01.961Z,320
2017-04-01T08:00:42.485Z,340
2017-04-01T08:01:23.015Z,350
2017-04-01T08:02:03.545Z,360
2017-04-01T08:02:44.066Z,385
2017-04-01T08:03:24.566Z,395
2017-04-01T08:04:05.094Z,385
2017-04-01T08:04:45.651Z,390
2017-04-01T08:05:26.170Z,405
2017-04-01T08:06:06.696Z,400
2017-04-01T08:06:47.221Z,385
2017-04-01T08:07:27.723Z,375
2017-04-01T08:08:08.222Z,380
2017-04-01T08:08:48.758Z,390
2017-04-01T08:09:29.281Z,370
2017-04-01T08:10:09.773Z,355
2017-04-01T08:10:50.287Z,335
2017-04-01T08:11:30.816Z,320
2017-04-01T08:12:11.331Z,295
2017-04-01T08:12:51.841Z,280
2017-04-01T08:13:32.335Z,265
2017-04-01T08:14:12.872Z,260
2017-04-01T08:14:53.389Z,260
2017-04-01T08:15:33.949Z,255
2017-04-01T08:16:14.435Z,240
2017-04-01T08:16:54.996Z,240
2017-04-01T08:17:35.521Z,240
2017-04-01T08:18:16.073Z,250
2017-04-01T08:18:56.583Z,275
2017-04-01T08:19:37.100Z,285
2017-04-01T08:20:17.619Z,290
2017-04-01T08:20:58.155Z,300
2017-04-01T08:21:38.661Z,315
2017-04-01T08:22:19.226Z,325
2017-04-01T08:22:59.745Z,330
2017-04-01T08:23:40.257Z,320
2017-04-01T08:24:20.769Z,310
2017-04-01T08:25:01.272Z,280
2017-04-01T08:25:41.799Z,270
2017-04-01T08:26:22.316Z,250
2017-04-01T08:27:02.828Z,235
2017-04-01T08:27:43.358Z,230
2017-04-01T08:28:23.880Z,220
2017-04-01T08:29:04.376Z,205
2017-04-01T08:29:44.892Z,205
2017-04-01T08:30:25.405Z,205
2017-04-01T08:31:05.924Z,205
2017-04-01T08:31:46.458Z,215
2017-04-01T08:32:26.996Z,225
2017-04-01T08:33:07.525Z,225
2017-04-01T08:33:48.063Z,220
2017-04-01T08:34:28.599Z,215
2017-04-01T08:35:09.131Z,230
2017-04-01T08:35:49.685Z,240
2017-04-01T08:36:30.278Z,240
2017-04-01T08:39:04.832Z,315
2017-04-01T08:39:45.371Z,330
2017-04-01T08:40:25.878Z,325
2017-04-01T08:41:06.398Z,330
2017-04-01T08:41:46.918Z,345
2017-04-01T08:42:27.437Z,360
2017-04-01T08:43:07.942Z,375
2017-04-01T08:43:48.472Z,400
2017-04-01T08:44:28.968Z,425
2017-04-01T08:45:09.484Z,435
2017-04-01T08:45:49.985Z,445
2017-04-01T08:46:30.512Z,470
2017-04-01T08:47:11.035Z,510
2017-04-01T08:47:51.554Z,540
2017-04-01T08:48:32.067Z,540
2017-04-01T08:49:12.571Z,545
2017-04-01T08:49:53.072Z,545
2017-04-01T08:50:33.599Z,515
2017-04-01T08:51:14.172Z,490
2017-04-01T08:51:54.705Z,470
2017-04-01T08:52:35.350Z,460
2017-04-01T08:53:15.892Z,435
2017-04-01T08:53:56.410Z,420
2017-04-01T08:54:36.976Z,380
2017-04-01T08:55:17.512Z,370
2017-04-01T08:55:58.063Z,340
2017-04-01T08:56:38.611Z,325
2017-04-01T08:57:19.138Z,325
2017-04-01T08:57:59.657Z,315
2017-04-01T08:58:40.197Z,305
2017-04-01T08:59:20.692Z,305
2017-04-01T09:00:01.218Z,295
2017-04-01T09:00:41.726Z,285
2017-04-01T09:01:22.271Z,290
2017-04-01T09:02:02.795Z,300
2017-04-01T09:02:43.322Z,315
2017-04-01T09:03:23.844Z,325
2017-04-01T09:04:04.414Z,345
2017-04-01T09:04:44.896Z,395
2017-04-01T09:05:25.409Z,355
2017-04-01T09:06:05.904Z,355
2017-04-01T09:06:46.472Z,345
2017-04-01T09:07:26.996Z,340
2017-04-01T09:08:07.515Z,325
2017-04-01T09:08:48.054Z,315
2017-04-01T09:09:28.591Z,305
2017-04-01T09:10:09.126Z,305
2017-04-01T09:10:49.671Z,310
2017-04-01T09:11:30.217Z,310
2017-04-01T09:12:10.738Z,340
2017-04-01T09:12:51.259Z,360
2017-04-01T09:13:31.799Z,380
2017-04-01T09:14:12.328Z,410
2017-04-01T09:14:52.874Z,455
2017-04-01T09:15:33.389Z,475
2017-04-01T09:16:13.933Z,465
2017-04-01T09:16:54.456Z,525
2017-04-01T09:17:34.992Z,505
2017-04-01T09:18:15.491Z,505
2017-04-01T09:18:56.016Z,600
2017-04-01T09:19:36.545Z,565
2017-04-01T09:20:17.082Z,545
2017-04-01T09:20:57.579Z,565
2017-04-01T09:21:38.101Z,595
2017-04-01T09:22:18.643Z,810
2017-04-01T09:22:59.181Z,650
2017-04-01T09:23:39.692Z,605
2017-04-01T09:24:20.207Z,580
2017-04-01T09:25:00.734Z,575
2017-04-01T09:25:41.254Z,600
2017-04-01T09:26:21.767Z,620
2017-04-01T09:27:02.304Z,620
2017-04-01T09:27:42.829Z,680
2017-04-01T09:28:23.353Z,630
2017-04-01T09:29:03.882Z,635
2017-04-01T09:29:44.414Z,680
2017-04-01T09:30:24.957Z,670
2017-04-01T09:31:05.481Z,730
2017-04-01T09:31:45.997Z,655
2017-04-01T09:32:26.526Z,695
2017-04-01T09:33:07.069Z,725
2017-04-01T09:33:47.581Z,725
2017-04-01T09:34:28.087Z,915
2017-04-01T09:35:08.610Z,855
2017-04-01T09:35:49.182Z,815
2017-04-01T09:36:29.707Z,650
2017-04-01T09:37:10.201Z,620
2017-04-01T09:37:50.725Z,695
2017-04-01T09:38:31.306Z,525
2017-04-01T09:39:11.827Z,500
2017-04-01T09:39:52.368Z,480
2017-04-01T09:40:32.889Z,490
2017-04-01T09:41:13.432Z,490
2017-04-01T09:41:53.953Z,505
2017-04-01T09:42:34.487Z,515
2017-04-01T09:43:15.001Z,525
2017-04-01T09:43:55.549Z,540
2017-04-01T09:44:36.064Z,550
2017-04-01T09:45:16.591Z,560